createdAt,value
2022-11-21T00:01:34.642Z,21.11
2022-11-21T00:03:35.992Z,21.09
2022-11-21T00:05:37.340Z,21.03
2022-11-21T00:07:38.861Z,20.96
2022-11-21T00:09:40.225Z,20.89
2022-11-21T00:11:41.552Z,20.84
2022-11-21T00:13:42.880Z,20.79
2022-11-21T00:15:44.176Z,20.75
2022-11-21T00:17:45.508Z,20.69
2022-11-21T00:19:46.809Z,20.65
2022-11-21T00:21:48.092Z,20.58
2022-11-21T00:23:49.502Z,20.51
2022-11-21T00:25:50.784Z,20.44
2022-11-21T00:27:52.098Z,20.39
2022-11-21T00:29:53.399Z,20.34
2022-11-21T00:31:55.122Z,20.31
2022-11-21T00:33:56.452Z,20.25
2022-11-21T00:35:57.736Z,20.21
2022-11-21T00:37:59.008Z,20.17
2022-11-21T00:40:00.380Z,20.14
2022-11-21T00:42:01.717Z,20.09
2022-11-21T00:44:02.993Z,20.07
2022-11-21T00:46:04.518Z,20.02
2022-11-21T00:48:05.793Z,20.00
2022-11-21T00:50:07.075Z,19.97
2022-11-21T00:52:08.413Z,19.95
2022-11-21T00:54:09.690Z,19.97
2022-11-21T00:56:11.165Z,19.98
2022-11-21T00:58:12.452Z,19.97
2022-11-21T01:00:13.724Z,19.98
2022-11-21T01:02:15.036Z,20.01
2022-11-21T01:04:16.345Z,20.05
2022-11-21T01:06:17.740Z,20.17
2022-11-21T01:08:19.020Z,20.32
2022-11-21T01:10:20.337Z,20.49
2022-11-21T01:12:21.632Z,20.65
2022-11-21T01:14:22.896Z,20.78
2022-11-21T01:16:24.418Z,20.90
2022-11-21T01:18:25.740Z,21.02
2022-11-21T01:20:27.013Z,21.09
2022-11-21T01:22:29.270Z,21.16
2022-11-21T01:24:30.574Z,21.16
2022-11-21T01:26:33.000Z,21.17
2022-11-21T01:28:34.308Z,21.16
2022-11-21T01:30:35.616Z,21.10
2022-11-21T01:32:36.889Z,21.04
2022-11-21T01:34:38.184Z,20.98
2022-11-21T01:36:39.509Z,20.94
2022-11-21T01:38:40.843Z,20.89
2022-11-21T01:40:42.124Z,20.82
2022-11-21T01:42:43.416Z,20.77
2022-11-21T01:44:44.739Z,20.70
2022-11-21T01:46:46.097Z,20.65
2022-11-21T01:48:47.427Z,20.58
2022-11-21T01:50:48.905Z,20.53
2022-11-21T01:52:50.189Z,20.52
2022-11-21T01:54:51.536Z,20.48
2022-11-21T01:56:53.003Z,20.43
2022-11-21T01:58:54.306Z,20.38
2022-11-21T02:00:55.613Z,20.33
2022-11-21T02:02:56.948Z,20.27
2022-11-21T02:04:58.212Z,20.22
2022-11-21T02:06:59.809Z,20.17
2022-11-21T02:09:01.128Z,20.12
2022-11-21T02:11:02.408Z,20.10
2022-11-21T02:13:03.721Z,20.06
2022-11-21T02:15:05.044Z,20.00
2022-11-21T02:17:06.352Z,19.97
2022-11-21T02:19:07.649Z,19.94
2022-11-21T02:21:08.942Z,19.91
2022-11-21T02:23:10.230Z,19.88
2022-11-21T02:25:11.532Z,19.90
2022-11-21T02:27:12.817Z,19.90
2022-11-21T02:29:14.206Z,19.91
2022-11-21T02:31:15.532Z,19.97
2022-11-21T02:33:16.820Z,20.06
2022-11-21T02:35:18.145Z,20.17
2022-11-21T02:37:19.468Z,20.26
2022-11-21T02:39:20.804Z,20.36
2022-11-21T02:41:26.566Z,20.53
2022-11-21T02:43:28.144Z,20.67
2022-11-21T02:45:29.840Z,20.78
2022-11-21T02:47:31.121Z,20.87
2022-11-21T02:49:32.403Z,20.97
2022-11-21T02:51:33.695Z,21.02
2022-11-21T02:53:35.008Z,21.05
2022-11-21T02:55:36.308Z,21.13
2022-11-21T02:57:37.608Z,21.11
2022-11-21T02:59:38.901Z,21.07
2022-11-21T03:01:40.164Z,21.01
2022-11-21T03:03:41.477Z,20.93
2022-11-21T03:05:42.805Z,20.88
2022-11-21T03:07:44.153Z,20.80
2022-11-21T03:09:45.503Z,19.90
2022-11-21T03:11:46.796Z,20.68
2022-11-21T03:13:48.069Z,20.58
2022-11-21T03:15:49.427Z,20.51
2022-11-21T03:17:50.731Z,20.47
2022-11-21T03:19:52.062Z,20.43
2022-11-21T03:21:54.536Z,20.41
2022-11-21T03:23:55.810Z,20.35
2022-11-21T03:25:57.116Z,20.29
2022-11-21T03:27:58.469Z,20.24
2022-11-21T03:29:59.755Z,20.19
2022-11-21T03:32:03.938Z,20.12
2022-11-21T03:34:05.247Z,20.07
2022-11-21T03:36:06.547Z,20.02
2022-11-21T03:38:07.829Z,19.97
2022-11-21T03:40:09.133Z,19.92
2022-11-21T03:42:10.418Z,19.86
2022-11-21T03:44:11.749Z,19.83
2022-11-21T03:46:13.041Z,19.78
2022-11-21T03:48:14.352Z,19.73
2022-11-21T03:50:18.946Z,19.70
2022-11-21T03:52:20.256Z,19.67
2022-11-21T03:54:21.528Z,19.66
2022-11-21T03:56:22.875Z,19.69
2022-11-21T03:58:24.148Z,19.69
2022-11-21T04:00:25.465Z,19.73
2022-11-21T04:02:26.810Z,19.83
2022-11-21T04:04:28.259Z,19.96
2022-11-21T04:06:31.436Z,20.08
2022-11-21T04:08:32.750Z,20.21
2022-11-21T04:10:34.053Z,20.36
2022-11-21T04:12:35.362Z,20.50
2022-11-21T04:14:36.644Z,20.67
2022-11-21T04:16:37.977Z,20.81
2022-11-21T04:18:39.333Z,20.91
2022-11-21T04:20:40.607Z,20.94
2022-11-21T04:22:41.880Z,21.01
2022-11-21T04:24:43.185Z,21.06
2022-11-21T04:26:44.511Z,21.10
2022-11-21T04:28:45.791Z,21.06
2022-11-21T04:30:47.113Z,21.02
2022-11-21T04:32:49.514Z,20.95
2022-11-21T04:34:50.867Z,20.94
2022-11-21T04:36:52.232Z,20.86
2022-11-21T04:38:53.605Z,20.79
2022-11-21T04:40:54.917Z,20.72
2022-11-21T04:42:56.209Z,20.68
2022-11-21T04:44:57.529Z,20.56
2022-11-21T04:47:05.012Z,20.51
2022-11-21T04:49:06.933Z,20.49
2022-11-21T04:51:08.300Z,20.44
2022-11-21T04:53:09.685Z,20.43
2022-11-21T04:55:10.969Z,20.34
2022-11-21T04:57:12.260Z,20.27
2022-11-21T04:59:13.546Z,20.20
2022-11-21T05:01:14.905Z,20.13
2022-11-21T05:03:16.236Z,20.06
2022-11-21T05:05:17.535Z,20.00
2022-11-21T05:07:18.891Z,19.95
2022-11-21T05:09:20.228Z,19.91
2022-11-21T05:11:40.317Z,19.86
2022-11-21T05:13:41.622Z,19.80
2022-11-21T05:15:42.893Z,19.75
2022-11-21T05:17:44.210Z,19.71
2022-11-21T05:19:45.494Z,19.67
2022-11-21T05:21:46.818Z,19.68
2022-11-21T05:23:48.142Z,19.65
2022-11-21T05:25:49.491Z,19.61
2022-11-21T05:27:50.770Z,19.58
2022-11-21T05:29:52.096Z,19.58
2022-11-21T05:31:53.395Z,19.61
2022-11-21T05:33:54.691Z,19.73
2022-11-21T05:35:56.168Z,19.89
2022-11-21T05:37:57.529Z,20.01
2022-11-21T05:39:58.885Z,20.01
2022-11-21T05:42:03.233Z,20.09
2022-11-21T05:44:04.780Z,20.21
2022-11-21T05:46:06.075Z,20.33
2022-11-21T05:48:08.024Z,20.49
2022-11-21T05:50:09.365Z,20.68
2022-11-21T05:52:10.648Z,20.81
2022-11-21T05:54:11.964Z,20.88
2022-11-21T05:56:13.232Z,20.89
2022-11-21T05:58:14.560Z,20.90
2022-11-21T06:00:15.838Z,20.92
2022-11-21T06:02:36.005Z,20.93
2022-11-21T06:04:37.646Z,20.86
2022-11-21T06:06:39.123Z,20.83
2022-11-21T06:08:40.420Z,20.75
2022-11-21T06:10:41.729Z,20.68
2022-11-21T06:12:43.013Z,20.64
2022-11-21T06:14:44.344Z,20.55
2022-11-21T06:16:45.636Z,20.48
2022-11-21T06:18:46.917Z,20.46
2022-11-21T06:20:48.240Z,20.38
2022-11-21T06:22:49.592Z,20.34
2022-11-21T06:24:50.888Z,20.29
2022-11-21T06:26:52.229Z,20.27
2022-11-21T06:28:53.509Z,20.22
2022-11-21T06:30:54.829Z,20.12
2022-11-21T06:32:56.187Z,20.07
2022-11-21T06:34:57.491Z,20.12
2022-11-21T06:36:58.766Z,20.10
2022-11-21T06:39:00.093Z,19.90
2022-11-21T06:41:01.384Z,19.75
2022-11-21T06:43:02.733Z,19.63
2022-11-21T06:45:04.044Z,19.55
2022-11-21T06:47:05.336Z,19.70
2022-11-21T06:49:07.568Z,19.55
2022-11-21T06:51:09.123Z,19.42
2022-11-21T06:53:10.519Z,19.33
2022-11-21T06:55:12.001Z,19.28
2022-11-21T06:57:13.292Z,19.26
2022-11-21T06:59:15.617Z,19.25
2022-11-21T07:01:16.920Z,19.33
2022-11-21T07:03:18.449Z,19.43
2022-11-21T07:05:19.816Z,19.49
2022-11-21T07:07:21.320Z,19.59
2022-11-21T07:09:38.168Z,19.75
2022-11-21T07:11:39.437Z,19.91
2022-11-21T07:13:40.766Z,20.03
2022-11-21T07:15:42.092Z,20.16
2022-11-21T07:17:43.368Z,20.25
2022-11-21T07:19:44.637Z,20.36
2022-11-21T07:21:45.916Z,20.43
2022-11-21T07:23:47.927Z,20.47
2022-11-21T07:25:49.264Z,20.52
2022-11-21T07:27:50.589Z,20.56
2022-11-21T07:29:51.920Z,20.57
2022-11-21T07:31:53.240Z,20.55
2022-11-21T07:33:54.636Z,20.51
2022-11-21T07:35:56.401Z,20.46
2022-11-21T07:37:57.803Z,20.41
2022-11-21T07:39:59.095Z,20.36
2022-11-21T07:42:00.380Z,20.29
2022-11-21T07:44:01.705Z,20.23
2022-11-21T07:46:03.039Z,20.17
2022-11-21T07:48:04.308Z,20.11
2022-11-21T07:50:05.589Z,20.05
2022-11-21T07:52:06.896Z,20.00
2022-11-21T07:54:08.221Z,19.92
2022-11-21T07:56:09.794Z,19.86
2022-11-21T07:58:11.124Z,19.81
2022-11-21T08:00:12.468Z,19.75
2022-11-21T08:02:13.837Z,19.68
2022-11-21T08:04:15.156Z,19.61
2022-11-21T08:06:16.477Z,19.56
2022-11-21T08:08:17.750Z,19.52
2022-11-21T08:10:19.060Z,19.48
2022-11-21T08:12:20.399Z,19.41
2022-11-21T08:14:21.682Z,19.35
2022-11-21T08:16:24.440Z,19.33
2022-11-21T08:18:26.388Z,19.32
2022-11-21T08:20:27.709Z,19.32
2022-11-21T08:22:28.993Z,19.33
2022-11-21T08:24:30.288Z,19.31
2022-11-21T08:26:31.563Z,17.05
2022-11-21T08:28:32.873Z,15.85
2022-11-21T08:30:34.162Z,16.31
2022-11-21T08:32:35.444Z,16.15
2022-11-21T08:34:36.746Z,17.00
2022-11-21T08:36:38.053Z,18.83
2022-11-21T08:38:39.373Z,19.77
2022-11-21T08:40:40.663Z,20.33
2022-11-21T08:42:41.998Z,20.47
2022-11-21T08:44:43.361Z,20.60
2022-11-21T08:46:44.632Z,20.77
2022-11-21T08:48:45.924Z,20.93
2022-11-21T08:50:47.203Z,20.93
2022-11-21T08:52:48.605Z,20.89
2022-11-21T08:54:49.892Z,20.88
2022-11-21T08:56:51.177Z,20.91
2022-11-21T08:58:52.452Z,21.08
2022-11-21T09:00:53.716Z,21.30
2022-11-21T09:02:55.728Z,21.45
2022-11-21T09:04:57.024Z,21.64
2022-11-21T09:06:58.521Z,21.74
2022-11-21T09:08:59.809Z,21.93
2022-11-21T09:11:01.100Z,21.70
2022-11-21T09:13:02.714Z,21.34
2022-11-21T09:15:22.877Z,21.18
2022-11-21T09:17:42.940Z,21.08
2022-11-21T09:19:44.264Z,21.02
2022-11-21T09:21:45.990Z,20.98
2022-11-21T09:23:47.378Z,20.96
2022-11-21T09:25:48.712Z,20.82
2022-11-21T09:27:49.992Z,20.99
2022-11-21T09:29:54.230Z,21.42
2022-11-21T09:31:55.764Z,21.17
2022-11-21T09:33:57.104Z,20.91
2022-11-21T09:35:58.454Z,21.05
2022-11-21T09:37:59.741Z,21.37
2022-11-21T09:40:01.051Z,21.04
2022-11-21T09:42:02.384Z,21.07
2022-11-21T09:44:03.708Z,21.13
2022-11-21T09:46:04.998Z,21.32
2022-11-21T09:48:06.649Z,21.39
2022-11-21T09:50:08.036Z,21.49
2022-11-21T09:52:09.365Z,21.36
2022-11-21T09:54:10.793Z,20.90
2022-11-21T09:56:12.166Z,20.61
2022-11-21T09:58:13.480Z,20.61
2022-11-21T10:00:14.809Z,20.93
2022-11-21T10:02:16.205Z,20.77
2022-11-21T10:04:17.516Z,20.82
2022-11-21T10:06:18.953Z,20.40
2022-11-21T10:08:20.276Z,20.10
2022-11-21T10:10:21.561Z,19.93
2022-11-21T10:12:37.879Z,19.86
2022-11-21T10:14:39.916Z,19.82
2022-11-21T10:16:42.336Z,19.80
2022-11-21T10:18:43.701Z,19.82
2022-11-21T10:20:45.030Z,19.83
2022-11-21T10:22:49.243Z,19.88
2022-11-21T10:24:50.562Z,19.95
2022-11-21T10:26:51.884Z,20.03
2022-11-21T10:28:53.216Z,20.10
2022-11-21T10:30:54.525Z,20.24
2022-11-21T10:32:55.827Z,20.35
2022-11-21T10:34:57.164Z,20.48
2022-11-21T10:36:58.489Z,20.60
2022-11-21T10:38:59.840Z,20.73
2022-11-21T10:41:01.190Z,20.81
2022-11-21T10:43:22.436Z,20.86
2022-11-21T10:45:23.720Z,20.92
2022-11-21T10:47:28.010Z,20.96
2022-11-21T10:49:29.280Z,20.95
2022-11-21T10:51:30.608Z,20.96
2022-11-21T10:53:50.752Z,20.93
2022-11-21T10:55:52.038Z,20.88
2022-11-21T10:57:55.006Z,20.83
2022-11-21T10:59:56.307Z,20.74
2022-11-21T11:01:57.693Z,20.66
2022-11-21T11:04:20.766Z,20.27
2022-11-21T11:06:20.289Z,20.52
2022-11-21T11:08:21.593Z,20.45
2022-11-21T11:10:27.242Z,20.52
2022-11-21T11:12:48.052Z,20.60
2022-11-21T11:14:49.379Z,20.50
2022-11-21T11:16:50.669Z,20.42
2022-11-21T11:18:52.210Z,20.32
2022-11-21T11:20:53.637Z,20.24
2022-11-21T11:22:54.989Z,20.18
2022-11-21T11:25:00.427Z,20.11
2022-11-21T11:27:02.767Z,20.06
2022-11-21T11:29:04.135Z,19.99
2022-11-21T11:31:05.709Z,19.94
2022-11-21T11:33:06.993Z,19.88
2022-11-21T11:35:08.360Z,19.79
2022-11-21T11:37:09.689Z,19.73
2022-11-21T11:39:11.505Z,19.64
2022-11-21T11:41:12.793Z,19.59
2022-11-21T11:43:32.949Z,19.54
2022-11-21T11:45:52.868Z,19.56
2022-11-21T11:47:54.878Z,19.64
2022-11-21T11:50:11.449Z,19.73
2022-11-21T11:52:12.821Z,19.86
2022-11-21T11:54:14.120Z,20.04
2022-11-21T11:56:15.473Z,20.20
2022-11-21T11:58:16.804Z,20.38
2022-11-21T12:00:18.134Z,20.52
2022-11-21T12:02:19.495Z,20.66
2022-11-21T12:04:21.108Z,20.78
2022-11-21T12:06:22.529Z,20.85
2022-11-21T12:11:05.033Z,21.01
2022-11-21T12:13:06.322Z,21.01
2022-11-21T12:15:26.237Z,21.01
2022-11-21T12:17:27.516Z,20.94
2022-11-21T12:19:29.123Z,21.02
2022-11-21T12:21:30.618Z,20.84
2022-11-21T12:23:32.204Z,20.68
2022-11-21T12:25:33.992Z,20.61
2022-11-21T12:27:35.280Z,20.52
2022-11-21T12:29:36.609Z,20.43
2022-11-21T12:31:37.945Z,20.31
2022-11-21T12:33:39.229Z,20.10
2022-11-21T12:35:40.509Z,19.96
2022-11-21T12:37:41.876Z,19.93
2022-11-21T12:39:43.201Z,19.89
2022-11-21T12:42:02.993Z,19.83
2022-11-21T12:44:04.291Z,19.75
2022-11-21T12:46:05.588Z,19.68
2022-11-21T12:48:25.424Z,19.60
2022-11-21T12:50:45.422Z,19.50
2022-11-21T12:53:05.473Z,19.42
2022-11-21T12:55:06.769Z,19.35
2022-11-21T12:57:08.084Z,19.28
2022-11-21T12:59:09.352Z,19.19
2022-11-21T13:01:15.468Z,19.15
2022-11-21T13:03:19.969Z,19.12
2022-11-21T13:05:21.245Z,19.14
2022-11-21T13:07:22.600Z,19.21
2022-11-21T13:09:23.904Z,19.28
2022-11-21T13:11:43.933Z,19.36
2022-11-21T13:13:45.208Z,19.51
2022-11-21T13:15:46.496Z,19.66
2022-11-21T13:17:47.775Z,19.80
2022-11-21T13:19:49.717Z,19.95
2022-11-21T13:21:50.997Z,20.05
2022-11-21T13:23:52.292Z,20.15
2022-11-21T13:25:53.674Z,20.23
2022-11-21T13:27:55.017Z,20.31
2022-11-21T13:29:56.322Z,20.35
2022-11-21T13:31:57.604Z,20.42
2022-11-21T13:33:58.924Z,20.44
2022-11-21T13:36:00.204Z,20.46
2022-11-21T13:38:04.434Z,20.51
2022-11-21T13:40:05.761Z,20.51
2022-11-21T13:42:25.625Z,20.50
2022-11-21T13:44:26.921Z,20.52
2022-11-21T13:46:28.213Z,20.48
2022-11-21T13:48:30.622Z,20.46
2022-11-21T13:50:31.913Z,20.42
2022-11-21T13:52:33.237Z,20.36
2022-11-21T13:54:34.561Z,20.31
2022-11-21T13:56:36.530Z,20.26
2022-11-21T13:58:38.098Z,20.22
2022-11-21T14:00:39.432Z,20.13
2022-11-21T14:02:43.012Z,20.06
2022-11-21T14:04:44.356Z,19.99
2022-11-21T14:06:45.769Z,19.92
2022-11-21T14:08:48.076Z,19.86
2022-11-21T14:10:49.532Z,19.80
2022-11-21T14:12:50.920Z,19.74
2022-11-21T14:14:52.351Z,19.68
2022-11-21T14:16:53.669Z,19.60
2022-11-21T14:18:55.012Z,19.55
2022-11-21T14:20:57.398Z,19.46
2022-11-21T14:22:58.810Z,19.39
2022-11-21T14:25:00.108Z,19.34
2022-11-21T14:27:01.497Z,19.29
2022-11-21T14:29:02.762Z,19.27
2022-11-21T14:31:04.070Z,19.26
2022-11-21T14:33:05.378Z,19.31
2022-11-21T14:35:06.702Z,19.39
2022-11-21T14:37:08.007Z,19.50
2022-11-21T14:41:31.295Z,19.75
2022-11-21T14:43:32.632Z,19.88
2022-11-21T14:45:33.917Z,19.97
2022-11-21T14:47:35.209Z,20.06
2022-11-21T14:49:36.544Z,20.14
2022-11-21T14:51:37.830Z,20.22
2022-11-21T14:53:39.162Z,20.28
2022-11-21T14:55:40.450Z,20.32
2022-11-21T14:57:42.341Z,20.36
2022-11-21T14:59:43.720Z,20.41
2022-11-21T15:01:47.766Z,20.44
2022-11-21T15:03:49.305Z,20.44
2022-11-21T15:06:08.269Z,20.43
2022-11-21T15:08:38.727Z,20.42
2022-11-21T15:10:31.743Z,20.41
2022-11-21T15:12:33.328Z,20.35
2022-11-21T15:14:34.669Z,20.30
2022-11-21T15:16:35.937Z,20.22
2022-11-21T15:18:37.739Z,20.17
2022-11-21T15:20:39.093Z,20.12
2022-11-21T15:22:41.197Z,20.07
2022-11-21T15:24:43.086Z,19.97
2022-11-21T15:26:44.562Z,19.91
2022-11-21T15:28:51.920Z,19.84
2022-11-21T15:30:53.205Z,19.78
2022-11-21T15:32:54.512Z,19.73
2022-11-21T15:34:55.819Z,19.66
2022-11-21T15:36:57.137Z,19.60
2022-11-21T15:38:58.545Z,19.51
2022-11-21T15:40:59.896Z,19.44
2022-11-21T15:43:01.802Z,19.38
2022-11-21T15:45:03.137Z,19.30
2022-11-21T15:47:07.516Z,19.24
2022-11-21T15:49:31.458Z,19.22
2022-11-21T15:53:52.354Z,19.24
2022-11-21T15:55:53.636Z,19.33
2022-11-21T15:57:15.068Z,19.20
2022-11-21T15:57:58.211Z,19.47
2022-11-21T15:59:59.588Z,19.60
2022-11-21T16:02:00.912Z,19.75
2022-11-21T16:04:02.236Z,19.89
2022-11-21T16:06:03.535Z,20.01
2022-11-21T16:08:05.272Z,20.11
2022-11-21T16:10:08.943Z,20.21
2022-11-21T16:12:15.961Z,20.30
2022-11-21T16:14:18.525Z,20.36
2022-11-21T16:16:19.958Z,20.42
2022-11-21T16:18:21.242Z,20.44
2022-11-21T16:20:22.542Z,20.46
2022-11-21T16:22:23.916Z,20.49
2022-11-21T16:24:25.220Z,20.48
2022-11-21T16:26:28.804Z,20.46
2022-11-21T16:28:30.458Z,20.42
2022-11-21T16:30:31.748Z,20.38
2022-11-21T16:32:33.076Z,20.32
2022-11-21T16:34:34.417Z,20.23
2022-11-21T16:36:35.749Z,20.18
2022-11-21T16:38:37.078Z,20.12
2022-11-21T16:40:39.452Z,20.06
2022-11-21T16:42:40.850Z,19.98
2022-11-21T16:44:42.201Z,19.89
2022-11-21T16:46:43.592Z,19.83
2022-11-21T16:48:45.023Z,19.76
2022-11-21T16:50:46.380Z,19.70
2022-11-21T16:52:47.740Z,19.61
2022-11-21T16:54:49.020Z,19.58
2022-11-21T16:56:56.041Z,19.51
2022-11-21T16:58:57.369Z,19.42
2022-11-21T17:00:59.215Z,19.34
2022-11-21T17:03:00.613Z,19.27
2022-11-21T17:05:01.997Z,18.36
2022-11-21T17:07:03.373Z,19.12
2022-11-21T17:09:04.720Z,19.04
2022-11-21T17:11:06.010Z,18.99
2022-11-21T17:13:07.286Z,18.96
2022-11-21T17:15:09.379Z,19.00
2022-11-21T17:17:16.402Z,19.08
2022-11-21T17:19:17.687Z,19.20
2022-11-21T17:21:19.028Z,19.35
2022-11-21T17:23:20.299Z,19.52
2022-11-21T17:25:21.564Z,19.67
2022-11-21T17:27:22.855Z,19.79
2022-11-21T17:29:24.227Z,19.89
2022-11-21T17:31:25.552Z,20.00
2022-11-21T17:33:26.841Z,20.11
2022-11-21T17:35:28.144Z,20.20
2022-11-21T17:37:29.427Z,20.26
2022-11-21T17:39:30.842Z,20.32
2022-11-21T17:41:32.312Z,20.37
2022-11-21T17:43:33.729Z,20.39
2022-11-21T17:45:35.009Z,20.40
2022-11-21T17:47:36.306Z,20.40
2022-11-21T17:49:43.558Z,20.40
2022-11-21T17:51:46.103Z,20.41
2022-11-21T17:53:47.458Z,20.38
2022-11-21T17:55:48.754Z,20.34
2022-11-21T17:57:50.102Z,20.29
2022-11-21T17:59:51.424Z,20.25
2022-11-21T18:01:52.838Z,20.19
2022-11-21T18:03:54.265Z,20.16
2022-11-21T18:05:55.544Z,20.08
2022-11-21T18:07:57.268Z,20.03
2022-11-21T18:10:20.380Z,19.96
2022-11-21T18:12:19.897Z,19.87
2022-11-21T18:14:21.896Z,19.79
2022-11-21T18:16:23.184Z,19.74
2022-11-21T18:18:24.465Z,19.70
2022-11-21T18:20:25.781Z,19.65
2022-11-21T18:22:29.574Z,19.59
2022-11-21T18:24:31.216Z,19.52
2022-11-21T18:26:38.786Z,19.47
2022-11-21T18:28:40.111Z,19.40
2022-11-21T18:30:41.402Z,19.34
2022-11-21T18:32:43.249Z,19.29
2022-11-21T18:34:44.565Z,19.26
2022-11-21T18:36:47.683Z,19.22
2022-11-21T18:38:54.641Z,19.20
2022-11-21T18:41:00.111Z,19.24
2022-11-21T18:43:19.641Z,19.33
2022-11-21T18:45:33.016Z,19.49
2022-11-21T18:47:40.244Z,19.60
2022-11-21T18:49:44.536Z,19.75
2022-11-21T18:51:45.967Z,19.89
2022-11-21T18:53:50.233Z,19.97
2022-11-21T18:56:00.235Z,20.07
2022-11-21T18:58:04.198Z,20.15
2022-11-21T19:00:05.530Z,20.22
2022-11-21T19:02:18.805Z,20.26
2022-11-21T19:04:20.209Z,20.30
2022-11-21T19:06:21.487Z,20.32
2022-11-21T19:08:28.516Z,20.34
2022-11-21T19:10:42.967Z,20.36
2022-11-21T19:12:47.973Z,20.32
2022-11-21T19:14:52.019Z,20.31
2022-11-21T19:19:46.604Z,19.42
2022-11-21T19:21:56.922Z,20.16
2022-11-21T19:24:01.049Z,20.08
2022-11-21T19:26:02.369Z,20.01
2022-11-21T19:28:09.757Z,19.97
2022-11-21T19:30:11.108Z,19.91
2022-11-21T19:32:18.554Z,19.83
2022-11-21T19:34:22.596Z,19.77
2022-11-21T19:36:26.821Z,19.71
2022-11-21T19:38:28.106Z,19.64
2022-11-21T19:40:49.408Z,19.56
2022-11-21T19:42:56.565Z,19.49
2022-11-21T19:44:58.281Z,19.45
2022-11-21T19:47:03.076Z,19.38
2022-11-21T19:49:06.990Z,19.32
2022-11-21T19:51:08.341Z,19.27
2022-11-21T19:53:09.625Z,19.27
2022-11-21T19:55:10.909Z,19.23
2022-11-21T19:57:14.047Z,19.21
2022-11-21T19:59:18.328Z,19.22
2022-11-21T20:01:31.629Z,19.34
2022-11-21T20:03:32.993Z,19.44
2022-11-21T20:05:34.278Z,19.55
2022-11-21T20:07:35.717Z,19.68
2022-11-21T20:09:37.206Z,19.81
2022-11-21T20:11:38.815Z,19.92
2022-11-21T20:13:40.546Z,20.02
2022-11-21T20:15:44.694Z,20.09
2022-11-21T20:17:46.025Z,20.15
2022-11-21T20:19:50.614Z,20.20
2022-11-21T20:21:55.383Z,20.24
2022-11-21T20:23:56.684Z,20.29
2022-11-21T20:25:57.978Z,20.30
2022-11-21T20:27:59.250Z,20.33
2022-11-21T20:30:04.414Z,20.34
2022-11-21T20:32:05.741Z,20.32
2022-11-21T20:34:07.080Z,20.30
2022-11-21T20:36:08.403Z,20.26
2022-11-21T20:38:09.729Z,20.22
2022-11-21T20:40:13.810Z,20.18
2022-11-21T20:42:17.869Z,20.10
2022-11-21T20:45:36.037Z,20.05
2022-11-21T20:46:40.840Z,18.90
2022-11-21T20:48:42.168Z,19.91
2022-11-21T20:55:29.005Z,19.67
2022-11-21T20:57:33.229Z,19.59
2022-11-21T20:59:34.509Z,19.53
2022-11-21T21:01:35.810Z,19.47
2022-11-21T21:03:37.148Z,19.41
2022-11-21T21:05:38.502Z,19.36
2022-11-21T21:07:39.846Z,19.30
2022-11-21T21:09:41.193Z,19.25
2022-11-21T21:11:52.028Z,19.19
2022-11-21T21:13:54.454Z,19.16
2022-11-21T21:16:01.989Z,19.15
2022-11-21T21:18:03.340Z,19.16
2022-11-21T21:20:04.636Z,19.24
2022-11-21T21:22:09.048Z,19.37
2022-11-21T21:24:10.888Z,19.49
2022-11-21T21:26:18.234Z,19.64
2022-11-21T21:28:19.521Z,19.77
2022-11-21T21:30:20.999Z,19.87
2022-11-21T21:32:22.284Z,19.98
2022-11-21T21:34:23.667Z,20.05
2022-11-21T21:36:24.960Z,20.13
2022-11-21T21:38:26.244Z,20.19
2022-11-21T21:40:27.595Z,20.22
2022-11-21T21:42:28.912Z,20.25
2022-11-21T21:44:33.483Z,20.28
2022-11-21T21:46:35.164Z,20.30
2022-11-21T21:48:36.472Z,20.26
2022-11-21T21:50:38.496Z,20.28
2022-11-21T21:52:39.828Z,20.24
2022-11-21T21:54:41.158Z,20.20
2022-11-21T21:56:42.456Z,20.17
2022-11-21T21:58:43.732Z,20.12
2022-11-21T22:00:45.014Z,20.05
2022-11-21T22:02:46.358Z,20.02
2022-11-21T22:04:51.816Z,19.96
2022-11-21T22:07:00.784Z,19.89
2022-11-21T22:09:02.189Z,19.82
2022-11-21T22:11:03.518Z,19.74
2022-11-21T22:13:04.850Z,19.69
2022-11-21T22:15:06.137Z,19.65
2022-11-21T22:17:07.462Z,19.57
2022-11-21T22:19:08.816Z,19.52
2022-11-21T22:21:10.085Z,19.26
2022-11-21T22:23:11.375Z,15.53
2022-11-21T22:25:12.692Z,17.27
2022-11-21T22:27:14.001Z,18.81
2022-11-21T22:29:15.281Z,19.81
2022-11-21T22:31:16.620Z,20.25
2022-11-21T22:33:17.901Z,20.41
2022-11-21T22:35:19.233Z,20.64
2022-11-21T22:37:20.721Z,20.84
2022-11-21T22:39:22.021Z,21.04
2022-11-21T22:41:23.309Z,21.33
2022-11-21T22:43:24.619Z,21.38
2022-11-21T22:45:25.899Z,21.69
2022-11-21T22:47:27.185Z,21.75
2022-11-21T22:49:28.464Z,21.95
2022-11-21T22:51:30.034Z,22.06
2022-11-21T22:53:35.625Z,22.12
2022-11-21T22:55:39.936Z,22.16
2022-11-21T22:57:41.226Z,22.19
2022-11-21T22:59:42.709Z,22.14
2022-11-21T23:01:44.055Z,22.24
2022-11-21T23:03:45.344Z,22.16
2022-11-21T23:05:46.660Z,22.13
2022-11-21T23:07:48.019Z,22.19
2022-11-21T23:09:49.405Z,22.36
2022-11-21T23:11:50.685Z,22.43
2022-11-21T23:13:52.177Z,22.62
2022-11-21T23:15:53.456Z,22.43
2022-11-21T23:17:54.840Z,22.36
2022-11-21T23:19:56.160Z,22.28
2022-11-21T23:21:57.469Z,22.29
2022-11-21T23:23:58.762Z,22.27
2022-11-21T23:26:00.111Z,22.50
2022-11-21T23:28:01.457Z,22.58
2022-11-21T23:30:02.763Z,22.49
2022-11-21T23:32:04.113Z,21.66
2022-11-21T23:34:05.542Z,22.34
2022-11-21T23:36:06.836Z,21.99
2022-11-21T23:38:08.157Z,22.10
2022-11-21T23:40:09.447Z,22.17
2022-11-21T23:42:10.729Z,22.35
2022-11-21T23:44:12.006Z,22.33
2022-11-21T23:46:13.444Z,22.42
2022-11-21T23:48:14.740Z,22.48
2022-11-21T23:50:16.064Z,22.38
2022-11-21T23:52:17.386Z,22.39
2022-11-21T23:54:18.694Z,22.43
2022-11-21T23:56:19.960Z,22.42
2022-11-21T23:58:21.349Z,22.36
